KFAY

Fayetteville Regional / Grannis Field Airport

Fayetteville, North Carolina, USA
METAR KFAY 181453Z 30009KT 10SM CLR M04/M11 A3034 RMK AO2 SLP270 T10441111 51013
Observed Flight Rules
Jan-18 @ 14:53 UTC (40 minutes ago) Visual Flight Rules
Wind Visibility Clouds
300° at 9 knots 10 miles
  • Clear skies
Temperatures Readings
Current -4°C / 25°F
Dewpoint -11°C / 12°F
Humidity 59%
Altimeter 30.34" Hg
Pressure 1027 hPa
Elevation 55
METAR KFAY 181453Z 30009KT 10SM CLR M04/M11 A3034 RMK AO2 SLP270 T10441111 51013
Observed Flight Rules
Jan-18 @ 14:53 UTC
(40 minutes ago)
VFR
Wind Visibility
300° at 9 knots 10 miles
Clouds
  • Clear skies
Temperature Dewpoint
-4°C / 25°F -11°C / 12°F
Humidity Altimeter Pressure
59% 30.34" Hg 1027 hPa